Wecota, South Dakota
Current Conditions -  °F | °C
As of 10:53 PM on Wednesday 22 Oct 2014 (Local Time) from KABR Reporting Station
Clear Clear  
Wind Chill: 44°   Ceiling: Unl
Heat Index: 47°   Visibility: 10mi
Dew Point: 45°   Wind: 7mph
Humidity: 93%   Direction: 210°SSW
Pressure: 29.96"   Gusts: NA
Location:  45.0672°N, 99.0996°W
Report Text: KABR 230353Z AUTO 21006KT 10SM CLR 08/07 A2996 RMK AO2 SLP147 T00830072
Loading
Personal Weather Stations






























Interactive Weather Map
Tropical Storm Tracking
New forecast layout! Learn more

10-Day Weather Forecast

Advertisements
Track Severe Weather on mobile